createdAt,value
2018-07-07T00:00:59.573Z,5.10
2018-07-07T00:03:27.837Z,4.20
2018-07-07T00:05:56.096Z,4.37
2018-07-07T00:08:24.349Z,4.43
2018-07-07T00:10:55.215Z,4.40
2018-07-07T00:13:23.503Z,5.00
2018-07-07T00:15:51.759Z,4.50
2018-07-07T00:18:20.035Z,4.80
2018-07-07T00:20:48.304Z,4.70
2018-07-07T00:23:16.502Z,5.50
2018-07-07T00:25:44.691Z,5.53
2018-07-07T00:28:12.823Z,5.27
2018-07-07T00:30:41.023Z,4.30
2018-07-07T00:33:09.291Z,6.57
2018-07-07T00:35:37.521Z,4.33
2018-07-07T00:38:05.939Z,6.17
2018-07-07T00:40:34.231Z,5.00
2018-07-07T00:43:03.345Z,5.20
2018-07-07T00:45:31.532Z,4.83
2018-07-07T00:47:59.795Z,5.40
2018-07-07T00:50:28.053Z,4.83
2018-07-07T00:52:56.309Z,6.20
2018-07-07T00:55:24.523Z,5.53
2018-07-07T00:57:52.769Z,5.13
2018-07-07T01:00:21.964Z,7.27
2018-07-07T01:02:50.231Z,5.23
2018-07-07T01:05:29.657Z,7.20
2018-07-07T01:07:58.097Z,5.20
2018-07-07T01:10:26.336Z,5.93
2018-07-07T01:12:54.607Z,4.03
2018-07-07T01:15:22.879Z,6.10
2018-07-07T01:17:51.141Z,6.60
2018-07-07T01:20:19.425Z,5.47
2018-07-07T01:22:47.623Z,5.83
2018-07-07T01:25:15.795Z,6.30
2018-07-07T01:27:43.991Z,6.90
2018-07-07T01:30:12.191Z,5.87
2018-07-07T01:32:40.449Z,5.50
2018-07-07T01:35:08.713Z,4.23
2018-07-07T01:37:36.997Z,4.77
2018-07-07T01:40:05.191Z,5.70
2018-07-07T01:42:33.457Z,5.70
2018-07-07T01:45:01.733Z,6.03
2018-07-07T01:47:29.926Z,5.20
2018-07-07T01:49:58.207Z,5.97
2018-07-07T01:52:26.456Z,4.80
2018-07-07T01:54:54.671Z,5.67
2018-07-07T01:57:22.867Z,5.90
2018-07-07T01:59:51.056Z,5.80
2018-07-07T02:02:19.325Z,5.60
2018-07-07T02:04:47.496Z,6.67
2018-07-07T02:07:15.767Z,6.23
2018-07-07T02:09:44.015Z,4.97
2018-07-07T02:12:12.199Z,5.83
2018-07-07T02:14:40.507Z,5.97
2018-07-07T02:17:08.958Z,6.00
2018-07-07T02:19:37.224Z,6.13
2018-07-07T02:22:05.402Z,6.00
2018-07-07T02:24:33.686Z,5.30
2018-07-07T02:27:01.933Z,6.43
2018-07-07T02:29:29.918Z,8.23
2018-07-07T02:31:58.494Z,5.73
2018-07-07T02:34:26.608Z,6.00
2018-07-07T02:36:54.972Z,5.67
2018-07-07T02:39:23.214Z,7.00
2018-07-07T02:41:51.494Z,5.77
2018-07-07T02:44:19.767Z,6.57
2018-07-07T02:46:48.037Z,6.20
2018-07-07T02:49:16.285Z,6.33
2018-07-07T02:51:44.569Z,6.67
2018-07-07T02:54:12.756Z,6.77
2018-07-07T02:56:40.960Z,9.30
2018-07-07T02:59:09.215Z,7.40
2018-07-07T03:01:37.407Z,6.20
2018-07-07T03:04:05.689Z,7.27
2018-07-07T03:06:33.867Z,5.73
2018-07-07T03:09:02.131Z,6.27
2018-07-07T03:11:30.410Z,5.60
2018-07-07T03:13:58.643Z,7.70
2018-07-07T03:16:26.924Z,5.70
2018-07-07T03:18:55.198Z,6.10
2018-07-07T03:21:23.481Z,7.53
2018-07-07T03:23:51.646Z,4.73
2018-07-07T03:26:20.147Z,6.30
2018-07-07T03:28:48.356Z,5.73
2018-07-07T03:31:16.616Z,5.57
2018-07-07T03:33:44.897Z,7.60
2018-07-07T03:36:13.117Z,7.27
2018-07-07T03:38:41.352Z,6.50
2018-07-07T03:41:09.595Z,8.50
2018-07-07T03:43:37.836Z,6.03
2018-07-07T03:46:06.075Z,5.87
2018-07-07T03:48:34.322Z,5.60
2018-07-07T03:51:02.592Z,5.73
2018-07-07T03:53:30.841Z,6.30
2018-07-07T03:55:59.083Z,6.50
2018-07-07T03:58:27.355Z,6.20
2018-07-07T04:00:55.695Z,5.47
2018-07-07T04:03:24.089Z,6.90
2018-07-07T04:05:52.312Z,6.77
2018-07-07T04:08:20.601Z,7.10
2018-07-07T04:10:48.867Z,5.27
2018-07-07T04:13:17.149Z,6.70
2018-07-07T04:15:45.433Z,6.50
2018-07-07T04:18:13.695Z,5.07
2018-07-07T04:20:41.903Z,6.03
2018-07-07T04:23:10.133Z,6.93
2018-07-07T04:25:38.323Z,5.50
2018-07-07T04:28:06.611Z,5.57
2018-07-07T04:30:34.891Z,6.83
2018-07-07T04:33:03.019Z,6.63
2018-07-07T04:35:31.268Z,6.80
2018-07-07T04:37:59.527Z,5.80
2018-07-07T04:40:27.711Z,4.60
2018-07-07T04:42:55.943Z,6.20
2018-07-07T04:45:24.202Z,5.87
2018-07-07T04:47:52.393Z,6.90
2018-07-07T04:50:20.649Z,5.40
2018-07-07T04:52:48.889Z,6.37
2018-07-07T04:55:17.087Z,6.07
2018-07-07T04:57:45.341Z,5.43
2018-07-07T05:00:13.643Z,7.80
2018-07-07T05:02:41.899Z,6.87
2018-07-07T05:05:10.165Z,7.37
2018-07-07T05:07:38.420Z,6.13
2018-07-07T05:10:06.841Z,6.83
2018-07-07T05:12:35.035Z,6.00
2018-07-07T05:15:03.299Z,6.27
2018-07-07T05:17:31.597Z,6.90
2018-07-07T05:19:59.775Z,6.03
2018-07-07T05:22:27.987Z,6.83
2018-07-07T05:24:56.200Z,6.30
2018-07-07T05:27:24.610Z,7.10
2018-07-07T05:29:52.899Z,7.50
2018-07-07T05:32:21.163Z,5.87
2018-07-07T05:34:49.533Z,6.87
2018-07-07T05:37:17.846Z,5.90
2018-07-07T05:39:46.096Z,7.30
2018-07-07T05:42:14.302Z,5.60
2018-07-07T05:44:42.552Z,7.10
2018-07-07T05:47:10.932Z,7.10
2018-07-07T05:49:39.129Z,6.67
2018-07-07T05:52:07.399Z,6.90
2018-07-07T05:54:35.623Z,6.03
2018-07-07T05:57:04.088Z,6.17
2018-07-07T05:59:32.331Z,6.40
2018-07-07T06:02:00.737Z,5.30
2018-07-07T06:04:29.027Z,5.87
2018-07-07T06:06:57.413Z,4.53
2018-07-07T06:09:25.618Z,5.83
2018-07-07T06:11:53.877Z,4.40
2018-07-07T06:14:22.135Z,4.00
2018-07-07T06:16:50.391Z,3.90
2018-07-07T06:19:18.586Z,4.40
2018-07-07T06:21:46.782Z,3.47
2018-07-07T06:24:15.720Z,4.10
2018-07-07T06:26:43.952Z,3.53
2018-07-07T06:29:12.156Z,3.50
2018-07-07T06:31:40.399Z,3.70
2018-07-07T06:34:08.674Z,2.90
2018-07-07T06:36:36.920Z,2.37
2018-07-07T06:39:05.893Z,2.83
2018-07-07T06:41:34.089Z,3.13
2018-07-07T06:44:02.359Z,2.90
2018-07-07T06:46:30.571Z,2.83
2018-07-07T06:48:59.002Z,2.43
2018-07-07T06:51:27.340Z,2.23
2018-07-07T06:53:56.015Z,3.03
2018-07-07T06:56:24.084Z,2.30
2018-07-07T06:58:52.364Z,2.43
2018-07-07T07:01:20.552Z,3.50
2018-07-07T07:03:48.799Z,2.90
2018-07-07T07:06:17.048Z,2.30
2018-07-07T07:08:45.301Z,2.93
2018-07-07T07:11:13.508Z,2.10
2018-07-07T07:13:41.694Z,2.43
2018-07-07T07:16:09.904Z,2.20
2018-07-07T07:18:38.174Z,1.97
2018-07-07T07:21:06.431Z,2.10
2018-07-07T07:23:34.626Z,2.90
2018-07-07T07:26:02.837Z,2.20
2018-07-07T07:28:31.092Z,2.53
2018-07-07T07:30:59.342Z,3.43
2018-07-07T07:33:27.516Z,2.30
2018-07-07T07:35:55.737Z,3.47
2018-07-07T07:38:23.980Z,2.52
2018-07-07T07:40:52.246Z,2.50
2018-07-07T07:43:20.536Z,2.70
2018-07-07T07:45:48.792Z,2.30
2018-07-07T07:48:17.012Z,2.23
2018-07-07T07:50:45.264Z,1.90
2018-07-07T07:53:13.549Z,2.20
2018-07-07T07:55:41.776Z,2.33
2018-07-07T07:58:10.030Z,2.10
2018-07-07T08:00:38.258Z,2.23
2018-07-07T08:03:06.826Z,2.70
2018-07-07T08:05:35.091Z,1.73
2018-07-07T08:08:03.505Z,2.30
2018-07-07T08:10:31.850Z,2.20
2018-07-07T08:13:00.109Z,1.83
2018-07-07T08:15:28.318Z,2.47
2018-07-07T08:17:56.599Z,2.57
2018-07-07T08:20:24.814Z,2.57
2018-07-07T08:22:53.075Z,2.67
2018-07-07T08:25:21.292Z,2.87
2018-07-07T08:27:49.475Z,2.83
2018-07-07T08:30:17.732Z,2.63
2018-07-07T08:32:45.980Z,2.10
2018-07-07T08:35:14.106Z,2.47
2018-07-07T08:37:42.338Z,1.97
2018-07-07T08:40:12.474Z,1.73
2018-07-07T08:42:40.765Z,2.30
2018-07-07T08:45:09.006Z,2.10
2018-07-07T08:47:37.204Z,2.07
2018-07-07T08:50:05.435Z,2.00
2018-07-07T08:52:33.598Z,2.40
2018-07-07T08:55:01.883Z,1.80
2018-07-07T08:57:30.614Z,2.47
2018-07-07T08:59:59.154Z,3.50
2018-07-07T09:02:27.920Z,2.70
2018-07-07T09:04:56.178Z,2.70
2018-07-07T09:07:24.404Z,2.70
2018-07-07T09:09:52.616Z,1.80
2018-07-07T09:12:20.902Z,2.20
2018-07-07T09:14:49.096Z,3.10
2018-07-07T09:17:17.368Z,2.50
2018-07-07T09:19:45.572Z,1.80
2018-07-07T09:22:13.846Z,3.50
2018-07-07T09:24:42.068Z,2.60
2018-07-07T09:27:10.652Z,3.37
2018-07-07T09:29:38.924Z,3.07
2018-07-07T09:32:07.190Z,3.30
2018-07-07T09:34:35.406Z,3.07
2018-07-07T09:37:03.662Z,2.83
2018-07-07T09:39:31.894Z,2.37
2018-07-07T09:42:00.161Z,1.90
2018-07-07T09:44:28.418Z,2.60
2018-07-07T09:46:56.709Z,2.47
2018-07-07T09:49:24.985Z,2.70
2018-07-07T09:51:53.241Z,3.20
2018-07-07T09:54:21.436Z,3.47
2018-07-07T09:56:49.627Z,3.30
2018-07-07T09:59:17.883Z,3.23
2018-07-07T10:01:46.157Z,3.53
2018-07-07T10:04:16.760Z,3.27
2018-07-07T10:06:44.935Z,3.80
2018-07-07T10:09:13.160Z,2.60
2018-07-07T10:11:41.453Z,3.63
2018-07-07T10:14:09.707Z,2.60
2018-07-07T10:16:37.946Z,3.47
2018-07-07T10:19:06.134Z,2.70
2018-07-07T10:21:34.404Z,2.20
2018-07-07T10:24:02.694Z,3.03
2018-07-07T10:26:30.962Z,3.37
2018-07-07T10:28:59.400Z,3.30
2018-07-07T10:31:27.737Z,3.00
2018-07-07T10:33:55.989Z,3.07
2018-07-07T10:36:24.185Z,3.40
2018-07-07T10:38:52.395Z,2.50
2018-07-07T10:41:20.616Z,3.20
2018-07-07T10:43:48.896Z,3.60
2018-07-07T10:46:17.137Z,3.20
2018-07-07T10:48:45.351Z,3.20
2018-07-07T10:51:13.549Z,3.70
2018-07-07T10:53:41.835Z,3.33
2018-07-07T10:56:10.079Z,3.70
2018-07-07T10:58:38.360Z,3.07
2018-07-07T11:01:06.555Z,3.03
2018-07-07T11:03:34.844Z,3.80
2018-07-07T11:06:03.109Z,3.43
2018-07-07T11:08:31.348Z,3.67
2018-07-07T11:10:59.661Z,3.43
2018-07-07T11:13:27.941Z,3.47
2018-07-07T11:15:56.205Z,3.53
2018-07-07T11:18:24.731Z,3.43
2018-07-07T11:20:52.915Z,3.93
2018-07-07T11:23:21.248Z,3.47
2018-07-07T11:25:49.507Z,3.50
2018-07-07T11:28:17.753Z,3.40
2018-07-07T11:30:46.034Z,4.00
2018-07-07T11:33:14.283Z,3.30
2018-07-07T11:35:42.500Z,3.40
2018-07-07T11:38:10.792Z,3.60
2018-07-07T11:40:39.063Z,3.43
2018-07-07T11:43:07.290Z,3.80
2018-07-07T11:45:35.653Z,3.33
2018-07-07T11:48:03.962Z,3.90
2018-07-07T11:50:32.257Z,3.23
2018-07-07T11:53:00.424Z,3.43
2018-07-07T11:55:28.642Z,3.57
2018-07-07T11:57:56.905Z,3.73
2018-07-07T12:00:25.095Z,3.47
2018-07-07T12:02:53.350Z,2.80
2018-07-07T12:05:21.549Z,3.40
2018-07-07T12:08:00.712Z,3.70
2018-07-07T12:10:18.044Z,3.00
2018-07-07T12:12:46.253Z,4.47
2018-07-07T12:15:14.499Z,3.20
2018-07-07T12:17:42.757Z,3.17
2018-07-07T12:20:11.127Z,3.03
2018-07-07T12:22:39.411Z,3.83
2018-07-07T12:25:07.730Z,3.50
2018-07-07T12:27:35.999Z,3.93
2018-07-07T12:30:04.737Z,3.73
2018-07-07T12:32:33.006Z,3.10
2018-07-07T12:35:01.278Z,3.40
2018-07-07T12:37:29.574Z,4.17
2018-07-07T12:39:57.818Z,3.13
2018-07-07T12:42:26.032Z,3.80
2018-07-07T12:44:54.258Z,2.90
2018-07-07T12:47:22.618Z,3.57
2018-07-07T12:49:50.820Z,3.47
2018-07-07T12:52:19.100Z,2.83
2018-07-07T12:54:47.351Z,3.57
2018-07-07T12:57:15.579Z,2.73
2018-07-07T12:59:43.775Z,3.43
2018-07-07T13:02:12.232Z,3.80
2018-07-07T13:04:40.432Z,3.17
2018-07-07T13:07:08.976Z,3.17
2018-07-07T13:09:37.194Z,3.23
2018-07-07T13:12:05.494Z,3.40
2018-07-07T13:14:33.766Z,2.67
2018-07-07T13:17:02.038Z,2.50
2018-07-07T13:19:30.233Z,3.40
2018-07-07T13:21:58.824Z,3.17
2018-07-07T13:24:27.075Z,2.60
2018-07-07T13:26:55.456Z,2.50
2018-07-07T13:29:23.618Z,3.00
2018-07-07T13:31:51.850Z,2.77
2018-07-07T13:34:20.078Z,2.50
2018-07-07T13:36:48.304Z,3.00
2018-07-07T13:39:16.512Z,2.90
2018-07-07T13:41:44.719Z,2.93
2018-07-07T13:44:12.947Z,3.57
2018-07-07T13:46:41.213Z,2.83
2018-07-07T13:49:09.472Z,3.53
2018-07-07T13:51:37.740Z,3.37
2018-07-07T13:54:06.294Z,2.60
2018-07-07T13:56:34.562Z,2.63
2018-07-07T13:59:02.861Z,3.00
2018-07-07T14:01:31.040Z,2.80
2018-07-07T14:03:59.304Z,2.20
2018-07-07T14:06:27.591Z,2.73
2018-07-07T14:08:55.842Z,2.87
2018-07-07T14:11:24.016Z,2.87
2018-07-07T14:13:52.372Z,3.10
2018-07-07T14:16:20.722Z,2.70
2018-07-07T14:18:48.976Z,3.50
2018-07-07T14:21:17.236Z,2.97
2018-07-07T14:23:45.496Z,2.60
2018-07-07T14:26:13.804Z,3.23
2018-07-07T14:28:42.088Z,2.37
2018-07-07T14:31:10.336Z,2.60
2018-07-07T14:33:38.614Z,3.03
2018-07-07T14:36:06.698Z,2.63
2018-07-07T14:38:38.273Z,2.23
2018-07-07T14:41:14.024Z,2.30
2018-07-07T14:43:55.568Z,2.73
2018-07-07T14:46:24.275Z,2.97
2018-07-07T14:48:52.338Z,3.30
2018-07-07T14:51:20.590Z,3.10
2018-07-07T14:53:49.206Z,2.57
2018-07-07T14:56:18.809Z,2.90
2018-07-07T14:58:47.210Z,3.70
2018-07-07T15:01:15.240Z,2.60
2018-07-07T15:03:43.661Z,2.80
2018-07-07T15:06:12.085Z,3.17
2018-07-07T15:08:40.397Z,2.80
2018-07-07T15:11:09.000Z,2.83
2018-07-07T15:13:37.278Z,3.20
2018-07-07T15:16:05.526Z,3.07
2018-07-07T15:18:34.564Z,3.23
2018-07-07T15:21:03.292Z,3.67
2018-07-07T15:23:31.740Z,2.87
2018-07-07T15:25:59.894Z,3.00
2018-07-07T15:28:28.118Z,2.47
2018-07-07T15:30:56.398Z,2.60
2018-07-07T15:33:24.682Z,3.23
2018-07-07T15:35:52.914Z,2.80
2018-07-07T15:38:21.186Z,3.50
2018-07-07T15:40:49.978Z,2.60
2018-07-07T15:43:18.291Z,2.67
2018-07-07T15:45:46.520Z,2.73
2018-07-07T15:48:14.796Z,2.90
2018-07-07T15:50:43.082Z,3.30
2018-07-07T15:53:11.356Z,2.80
2018-07-07T15:55:39.616Z,2.83
2018-07-07T15:58:07.862Z,3.10
2018-07-07T16:00:36.143Z,2.83
2018-07-07T16:03:04.413Z,2.90
2018-07-07T16:05:32.657Z,2.67
2018-07-07T16:08:00.761Z,2.70
2018-07-07T16:10:29.013Z,2.90
2018-07-07T16:12:57.218Z,3.13
2018-07-07T16:15:25.547Z,3.07
2018-07-07T16:17:55.035Z,2.87
2018-07-07T16:20:24.980Z,2.23
2018-07-07T16:22:53.204Z,2.57
2018-07-07T16:25:21.477Z,2.93
2018-07-07T16:27:49.738Z,2.37
2018-07-07T16:30:17.852Z,2.57
2018-07-07T16:32:46.112Z,2.17
2018-07-07T16:35:14.396Z,2.30
2018-07-07T16:37:42.653Z,2.10
2018-07-07T16:40:10.976Z,2.73
2018-07-07T16:42:39.657Z,2.87
2018-07-07T16:45:08.245Z,2.40
2018-07-07T16:47:36.727Z,1.63
2018-07-07T16:50:05.035Z,1.90
2018-07-07T16:52:33.236Z,1.97
2018-07-07T16:55:01.565Z,1.70
2018-07-07T16:57:29.892Z,2.07
2018-07-07T16:59:58.623Z,1.63
2018-07-07T17:02:26.625Z,3.00
2018-07-07T17:04:54.893Z,1.60
2018-07-07T17:07:23.213Z,1.67
2018-07-07T17:09:51.689Z,1.80
2018-07-07T17:12:19.901Z,1.73
2018-07-07T17:14:48.159Z,1.50
2018-07-07T17:17:16.441Z,1.40
2018-07-07T17:19:44.671Z,1.50
2018-07-07T17:22:12.995Z,1.40
2018-07-07T17:24:41.615Z,1.80
2018-07-07T17:27:10.107Z,1.50
2018-07-07T17:29:38.415Z,1.30
2018-07-07T17:32:07.050Z,1.80
2018-07-07T17:34:35.344Z,1.47
2018-07-07T17:37:03.879Z,1.33
2018-07-07T17:39:32.051Z,1.30
2018-07-07T17:42:00.340Z,1.23
2018-07-07T17:44:28.585Z,1.50
2018-07-07T17:46:56.925Z,1.17
2018-07-07T17:49:25.248Z,1.93
2018-07-07T17:51:53.520Z,1.87
2018-07-07T17:54:21.807Z,1.37
2018-07-07T17:56:50.101Z,1.60
2018-07-07T17:59:18.291Z,1.20
2018-07-07T18:01:46.733Z,1.20
2018-07-07T18:04:15.012Z,1.00
2018-07-07T18:06:43.188Z,1.00
2018-07-07T18:09:11.381Z,1.90
2018-07-07T18:11:39.724Z,1.00
2018-07-07T18:14:08.123Z,1.40
2018-07-07T18:16:36.462Z,1.57
2018-07-07T18:19:05.058Z,1.10
2018-07-07T18:21:33.252Z,1.50
2018-07-07T18:24:01.524Z,1.00
2018-07-07T18:26:30.042Z,1.53
2018-07-07T18:28:57.987Z,1.43
2018-07-07T18:31:26.177Z,1.00
2018-07-07T18:33:54.460Z,1.80
2018-07-07T18:36:22.722Z,1.00
2018-07-07T18:38:50.846Z,1.10
2018-07-07T18:41:19.074Z,1.30
2018-07-07T18:43:47.345Z,1.30
2018-07-07T18:46:15.540Z,1.43
2018-07-07T18:48:44.045Z,1.30
2018-07-07T18:51:12.238Z,1.03
2018-07-07T18:53:40.432Z,1.30
2018-07-07T18:56:08.652Z,1.20
2018-07-07T18:58:36.944Z,1.60
2018-07-07T19:01:05.189Z,1.50
2018-07-07T19:03:33.369Z,1.33
2018-07-07T19:06:01.604Z,2.00
2018-07-07T19:08:29.895Z,1.70
2018-07-07T19:10:58.141Z,1.03
2018-07-07T19:13:26.371Z,2.63
2018-07-07T19:15:54.637Z,1.70
2018-07-07T19:18:22.922Z,1.40
2018-07-07T19:20:56.413Z,1.20
2018-07-07T19:23:30.127Z,1.13
2018-07-07T19:26:03.773Z,1.30
2018-07-07T19:28:32.094Z,1.73
2018-07-07T19:31:00.323Z,1.30
2018-07-07T19:33:33.993Z,1.23
2018-07-07T19:36:07.621Z,1.63
2018-07-07T19:38:35.863Z,1.80
2018-07-07T19:41:04.083Z,1.30
2018-07-07T19:43:32.355Z,1.57
2018-07-07T19:46:00.548Z,2.00
2018-07-07T19:48:28.787Z,1.47
2018-07-07T19:50:57.085Z,1.80
2018-07-07T19:53:25.289Z,1.87
2018-07-07T19:55:53.505Z,1.70
2018-07-07T19:58:22.209Z,1.70
2018-07-07T20:00:50.215Z,1.60
2018-07-07T20:03:18.405Z,1.80
2018-07-07T20:05:46.941Z,1.17
2018-07-07T20:08:15.365Z,1.77
2018-07-07T20:10:43.643Z,1.77
2018-07-07T20:13:11.899Z,1.63
2018-07-07T20:15:51.507Z,1.83
2018-07-07T20:18:19.769Z,2.27
2018-07-07T20:22:00.408Z,2.00
2018-07-07T20:24:38.499Z,1.60
2018-07-07T20:27:12.855Z,1.33
2018-07-07T20:29:41.075Z,2.00
2018-07-07T20:33:16.780Z,1.70
2018-07-07T20:35:44.989Z,1.53
2018-07-07T20:38:13.265Z,2.00
2018-07-07T20:40:41.471Z,1.90
2018-07-07T20:43:09.727Z,5.03
2018-07-07T20:45:38.011Z,6.63
2018-07-07T20:48:06.207Z,4.83
2018-07-07T20:50:34.393Z,4.50
2018-07-07T20:53:02.595Z,5.00
2018-07-07T20:55:31.042Z,5.30
2018-07-07T20:57:59.219Z,3.00
2018-07-07T21:00:27.438Z,2.17
2018-07-07T21:02:55.632Z,2.13
2018-07-07T21:05:23.932Z,1.37
2018-07-07T21:07:52.170Z,2.17
2018-07-07T21:10:20.418Z,1.90
2018-07-07T21:12:48.710Z,1.97
2018-07-07T21:15:16.900Z,1.33
2018-07-07T21:17:45.212Z,1.27
2018-07-07T21:20:13.509Z,1.30
2018-07-07T21:22:41.621Z,1.30
2018-07-07T21:25:10.417Z,1.60
2018-07-07T21:27:38.686Z,1.30
2018-07-07T21:30:06.967Z,1.80
2018-07-07T21:32:35.156Z,1.80
2018-07-07T21:35:03.376Z,1.40
2018-07-07T21:37:31.630Z,1.30
2018-07-07T21:39:59.890Z,1.80
2018-07-07T21:42:28.134Z,2.07
2018-07-07T21:44:56.373Z,1.93
2018-07-07T21:47:24.656Z,2.07
2018-07-07T21:49:52.946Z,1.40
2018-07-07T21:52:21.216Z,1.73
2018-07-07T21:54:49.475Z,2.57
2018-07-07T21:57:23.105Z,2.93
2018-07-07T21:59:51.384Z,1.30
2018-07-07T22:02:24.903Z,1.67
2018-07-07T22:04:58.534Z,1.10
2018-07-07T22:07:32.020Z,2.10
2018-07-07T22:10:00.294Z,1.17
2018-07-07T22:12:28.622Z,1.63
2018-07-07T22:14:56.634Z,1.60
2018-07-07T22:17:24.902Z,1.47
2018-07-07T22:19:53.180Z,1.10
2018-07-07T22:22:21.458Z,1.43
2018-07-07T22:24:49.750Z,2.03
2018-07-07T22:27:18.224Z,1.80
2018-07-07T22:29:46.430Z,1.30
2018-07-07T22:32:20.130Z,1.60
2018-07-07T22:34:48.396Z,1.70
2018-07-07T22:37:16.748Z,1.77
2018-07-07T22:39:45.244Z,1.63
2018-07-07T22:42:14.752Z,1.27
2018-07-07T22:44:44.062Z,1.50
2018-07-07T22:47:12.597Z,1.50
2018-07-07T22:49:40.951Z,1.37
2018-07-07T22:52:10.030Z,1.43
2018-07-07T22:54:38.334Z,1.70
2018-07-07T22:57:06.800Z,1.50
2018-07-07T22:59:34.965Z,1.57
2018-07-07T23:02:03.092Z,1.27
2018-07-07T23:04:31.278Z,1.43
2018-07-07T23:06:59.570Z,1.50
2018-07-07T23:09:27.784Z,1.73
2018-07-07T23:11:55.962Z,1.10
2018-07-07T23:14:24.074Z,1.90
2018-07-07T23:16:52.368Z,1.77
2018-07-07T23:19:20.577Z,1.30
2018-07-07T23:21:48.844Z,1.20
2018-07-07T23:24:17.093Z,1.27
2018-07-07T23:26:45.289Z,1.73
2018-07-07T23:29:13.560Z,1.83
2018-07-07T23:31:41.781Z,1.50
2018-07-07T23:34:09.975Z,1.30
2018-07-07T23:36:38.225Z,1.43
2018-07-07T23:39:06.714Z,1.80
2018-07-07T23:41:34.708Z,2.00
2018-07-07T23:44:03.003Z,1.93
2018-07-07T23:46:31.264Z,1.70
2018-07-07T23:48:59.512Z,1.50
2018-07-07T23:51:27.824Z,1.97
2018-07-07T23:53:56.060Z,1.63
2018-07-07T23:56:24.326Z,1.40
2018-07-07T23:58:52.580Z,2.00
